Latest Weather Observations for Sydney Harbour

IDN60901

Issued at 9:55 am EDT Wednesday 26 November 2014 (issued every 10 minutes, with the page automatically refreshed every 10 minutes)

About weather observations | Map of Sydney area stations | Latest observations for Sydney area | Other Formats
Station Details ID: 066196 Name: WEDDING CAKE WEST Lat: -33.84 Lon: 151.26 Height: 6.0 m
Data from the previous 72 hours. | See also: Recent months for locations in New South Wales
Date/Time
EDT
Tmp

°C
App
Tmp
°C
Dew
Point
°C
Rel
Hum
%
Delta-T

°C
Wind Press
QNH
hPa
Press
MSL
hPa
Rain
since
9 am
mm
Dir
 
Spd
km/h
Gust
km/h
Spd
kts
Gust
kts
26/09:30am 20.2 - - - - ENE 20 24 11 13 - - -
26/09:00am 20.1 - - - - NE 20 26 11 14 - - -
26/08:30am 20.1 - - - - NE 22 28 12 15 - - -
26/08:00am 19.9 - - - - NE 24 30 13 16 - - -
26/07:30am 20.0 - - - - NE 26 30 14 16 - - -
26/07:00am 19.8 - - - - NE 22 26 12 14 - - -
26/06:30am 19.7 - - - - NE 26 30 14 16 - - -
26/06:00am 19.7 - - - - NE 24 28 13 15 - - -
26/05:30am 19.7 - - - - NE 22 26 12 14 - - -
26/05:00am 19.7 - - - - NE 26 32 14 17 - - -
26/04:30am 19.6 - - - - ENE 26 30 14 16 - - -
26/04:00am 19.6 - - - - ENE 22 32 12 17 - - -
26/03:30am 19.6 - - - - ENE 22 28 12 15 - - -
26/03:00am 19.6 - - - - ENE 20 28 11 15 - - -
26/02:30am 19.7 - - - - ENE 19 24 10 13 - - -
26/02:00am 19.6 - - - - E 19 24 10 13 - - -
26/01:30am 19.8 - - - - E 19 24 10 13 - - -
26/01:00am 19.8 - - - - E 20 24 11 13 - - -
26/12:30am 19.9 - - - - E 20 24 11 13 - - -
26/12:00am 19.9 - - - - E 20 24 11 13 - - -
 
Date/Time
EDT
Tmp

°C
App
Tmp
°C
Dew
Point
°C
Rel
Hum
%
Delta-T

°C
Wind Press
QNH
hPa
Press
MSL
hPa
Rain
since
9 am
mm
Dir
 
Spd
km/h
Gust
km/h
Spd
kts
Gust
kts
25/11:30pm 19.9 - - - - E 17 22 9 12 - - -
25/11:00pm 19.9 - - - - E 17 20 9 11 - - -
25/10:30pm 20.1 - - - - ESE 17 20 9 11 - - -
25/10:00pm 20.0 - - - - E 17 20 9 11 - - -
25/09:30pm 20.0 - - - - E 19 20 10 11 - - -
25/09:00pm 20.1 - - - - E 17 22 9 12 - - -
25/08:30pm 20.0 - - - - E 15 20 8 11 - - -
25/08:00pm 19.9 - - - - ESE 19 22 10 12 - - -
25/07:30pm 19.9 - - - - E 20 24 11 13 - - -
25/07:00pm 20.1 - - - - ESE 20 24 11 13 - - -
25/06:30pm 20.4 - - - - E 19 24 10 13 - - -
25/06:00pm 20.6 - - - - ESE 20 24 11 13 - - -
25/05:30pm 20.3 - - - - E 20 28 11 15 - - -
25/05:00pm 20.5 - - - - ESE 22 28 12 15 - - -
25/04:30pm 20.5 - - - - E 22 30 12 16 - - -
25/04:00pm 20.6 - - - - ESE 22 30 12 16 - - -
25/03:30pm 20.6 - - - - ESE 24 28 13 15 - - -
25/03:00pm 20.2 - - - - SE 22 33 12 18 - - -
25/02:30pm 20.1 - - - - SE 24 30 13 16 - - -
25/02:00pm 20.1 - - - - SE 22 28 12 15 - - -
25/01:30pm 20.2 - - - - SE 22 28 12 15 - - -
25/01:00pm 20.5 - - - - SSE 22 30 12 16 - - -
25/12:30pm 20.1 - - - - S 26 35 14 19 - - -
25/12:00pm 20.3 - - - - S 30 41 16 22 - - -
25/11:30am 20.4 - - - - S 35 46 19 25 - - -
25/11:00am 20.9 - - - - SSE 33 43 18 23 - - -
25/10:30am 21.4 - - - - S 41 48 22 26 - - -
25/10:23am 21.9 - - - - SSW 41 44 22 24 - - -
25/10:00am 24.1 - - - - SW 41 54 22 29 - - -
25/09:38am 24.4 - - - - SW 32 50 17 27 - - -
25/09:30am 24.1 - - - - SSW 28 37 15 20 - - -
25/09:00am 24.2 - - - - SW 20 24 11 13 - - -
25/08:30am 23.9 - - - - W 11 15 6 8 - - -
25/08:00am 23.7 - - - - WSW 13 19 7 10 - - -
25/07:30am 23.4 - - - - W 13 17 7 9 - - -
25/07:00am 22.9 - - - - W 9 17 5 9 - - -
25/06:30am 23.6 - - - - W 4 7 2 4 - - -
25/06:00am 23.7 - - - - WNW 19 22 10 12 - - -
25/05:30am 24.1 - - - - N 13 17 7 9 - - -
25/05:00am 23.9 - - - - NW 17 26 9 14 - - -
25/04:30am 23.6 - - - - NNW 20 32 11 17 - - -
25/04:00am 23.6 - - - - NNW 20 28 11 15 - - -
25/03:30am 23.5 - - - - NNW 24 39 13 21 - - -
25/03:00am 23.5 - - - - NNW 28 35 15 19 - - -
25/02:30am 23.5 - - - - NNW 20 28 11 15 - - -
25/02:00am 23.8 - - - - NNW 20 30 11 16 - - -
25/01:30am 24.3 - - - - NNW 24 35 13 19 - - -
25/01:00am 24.1 - - - - NNW 20 32 11 17 - - -
25/12:30am 24.0 - - - - NNW 22 32 12 17 - - -
25/12:00am 23.4 - - - - N 19 28 10 15 - - -
 
Date/Time
EDT
Tmp

°C
App
Tmp
°C
Dew
Point
°C
Rel
Hum
%
Delta-T

°C
Wind Press
QNH
hPa
Press
MSL
hPa
Rain
since
9 am
mm
Dir
 
Spd
km/h
Gust
km/h
Spd
kts
Gust
kts
24/11:30pm 22.5 - - - - NNW 9 15 5 8 - - -
24/11:00pm 22.2 - - - - NW 9 11 5 6 - - -
24/10:30pm 21.8 - - - - SSW 7 11 4 6 - - -
24/10:00pm 21.6 - - - - NNE 11 17 6 9 - - -
24/09:30pm 21.9 - - - - NNE 6 9 3 5 - - -
24/09:00pm 21.9 - - - - NNE 2 9 1 5 - - -
24/08:30pm 21.8 - - - - N 6 11 3 6 - - -
24/08:00pm 21.8 - - - - NNE 9 11 5 6 - - -
24/07:30pm 21.6 - - - - E 4 9 2 5 - - -
24/07:00pm 21.6 - - - - E 9 9 5 5 - - -
24/06:30pm 21.5 - - - - ENE 15 20 8 11 - - -
24/06:00pm 22.1 - - - - ESE 9 19 5 10 - - -
24/05:30pm 22.3 - - - - SSE 17 24 9 13 - - -
24/05:00pm 21.9 - - - - SE 17 20 9 11 - - -
24/04:30pm 22.1 - - - - SE 13 19 7 10 - - -
24/04:00pm 22.3 - - - - NE 7 13 4 7 - - -
24/03:56pm 22.2 - - - - WNW 30 48 16 26 - - -
24/03:53pm 21.9 - - - - WNW 32 48 17 26 - - -
24/03:30pm 21.4 - - - - ENE 20 26 11 14 - - -
24/03:00pm 21.6 - - - - ENE 20 24 11 13 - - -
24/02:30pm 21.7 - - - - ENE 22 28 12 15 - - -
24/02:00pm 21.8 - - - - ENE 19 24 10 13 - - -
24/01:30pm 22.2 - - - - ENE 20 24 11 13 - - -
24/01:00pm 22.8 - - - - E 20 22 11 12 - - -
24/12:30pm 24.8 - - - - ESE 15 19 8 10 - - -
24/12:00pm 24.6 - - - - ESE 15 20 8 11 - - -
24/11:30am 25.5 - - - - SSW 6 7 3 4 - - -
24/11:00am 23.4 - - - - SSW 9 11 5 6 - - -
24/10:30am 24.4 - - - - CALM 0 0 0 0 - - -
24/10:00am 22.8 - - - - CALM 0 0 0 0 - - -
24/09:30am 21.9 - - - - SSW 7 11 4 6 - - -
24/09:00am 21.4 - - - - SSW 11 15 6 8 - - -
24/08:30am 21.3 - - - - SSE 11 15 6 8 - - -
24/08:00am 21.1 - - - - SE 15 20 8 11 - - -
24/07:30am 21.1 - - - - ESE 19 24 10 13 - - -
24/07:00am 21.2 - - - - E 19 24 10 13 - - -
24/06:30am 21.2 - - - - ESE 17 24 9 13 - - -
24/06:00am 21.2 - - - - SE 13 20 7 11 - - -
24/05:30am 21.2 - - - - SSE 9 17 5 9 - - -
24/05:00am 21.3 - - - - S 17 20 9 11 - - -
24/04:30am 21.6 - - - - SSW 15 20 8 11 - - -
24/04:00am 21.2 - - - - SSE 11 13 6 7 - - -
24/03:30am 21.5 - - - - SW 17 20 9 11 - - -
24/03:00am 21.5 - - - - SSW 17 20 9 11 - - -
24/02:30am 21.7 - - - - SSW 17 20 9 11 - - -
24/02:00am 21.6 - - - - SSW 20 24 11 13 - - -
24/01:30am 21.7 - - - - SW 22 28 12 15 - - -
24/01:00am 21.7 - - - - SSW 20 28 11 15 - - -
24/12:30am 22.0 - - - - SW 9 17 5 9 - - -
24/12:00am 22.0 - - - - CALM 0 0 0 0 - - -
 
Date/Time
EDT
Tmp

°C
App
Tmp
°C
Dew
Point
°C
Rel
Hum
%
Delta-T

°C
Wind Press
QNH
hPa
Press
MSL
hPa
Rain
since
9 am
mm
Dir
 
Spd
km/h
Gust
km/h
Spd
kts
Gust
kts
23/11:30pm 22.1 - - - - WSW 17 22 9 12 - - -
23/11:00pm 21.8 - - - - S 9 13 5 7 - - -
23/10:30pm 21.8 - - - - S 13 17 7 9 - - -
23/10:00pm 21.7 - - - - S 19 26 10 14 - - -
23/09:30pm 21.9 - - - - ESE 9 15 5 8 - - -
23/09:22pm 21.9 - - - - SSE 11 20 6 11 - - -
23/09:00pm 22.0 - - - - S 37 46 20 25 - - -
23/08:30pm 22.1 - - - - SSW 52 70 28 38 - - -
23/08:23pm 22.1 - - - - SSW 41 67 22 36 - - -
23/08:18pm 22.2 - - - - SW 37 48 20 26 - - -
23/08:00pm 21.8 - - - - S 28 44 15 24 - - -
23/07:30pm 21.6 - - - - S 30 39 16 21 - - -
23/07:00pm 21.5 - - - - S 35 48 19 26 - - -
23/06:30pm 22.3 - - - - SSE 26 35 14 19 - - -
23/06:00pm 23.3 - - - - SE 20 24 11 13 - - -
23/05:30pm 22.4 - - - - E 20 24 11 13 - - -
23/05:17pm 22.3 - - - - ESE 9 11 5 6 - - -
23/05:00pm 22.0 - - - - ENE 43 48 23 26 - - -
23/04:30pm 22.7 - - - - E 26 37 14 20 - - -
23/04:00pm 24.3 - - - - NNE 26 37 14 20 - - -
23/03:30pm 23.7 - - - - NNE 28 35 15 19 - - -
23/03:00pm 21.7 - - - - NNE 30 35 16 19 - - -
23/02:30pm 21.7 - - - - N 28 32 15 17 - - -
23/02:00pm 21.5 - - - - N 30 33 16 18 - - -
23/01:30pm 21.5 - - - - NE 19 20 10 11 - - -
23/01:00pm 20.4 - - - - ENE 22 26 12 14 - - -
23/12:30pm 20.7 - - - - ENE 19 20 10 11 - - -
23/12:00pm 20.7 - - - - E 17 20 9 11 - - -
23/11:30am 21.0 - - - - ENE 15 19 8 10 - - -
23/11:00am 20.9 - - - - ENE 20 20 11 11 - - -
23/10:30am 21.0 - - - - ENE 19 22 10 12 - - -
23/10:00am 21.4 - - - - ENE 19 20 10 11 - - -

Latest Capital City Observations: Canberra | Sydney | Melbourne | Brisbane | Adelaide | Perth | Hobart | Darwin

Other Formats:

Comma delimited format used in spreadsheet applications
http://www.bom.gov.au/fwo/IDN60901/IDN60901.95766.axf

JavaScript Object Notation format (JSON) in row-major order
http://www.bom.gov.au/fwo/IDN60901/IDN60901.95766.json